sensor_id;sensor_type;location;lat;lon;timestamp;pressure;altitude;pressure_sealevel;temperature;humidity
6829;BME280;17930;48.592;8.868;2023-05-01T00:01:26;96690.53;;;10.45;100.00
6829;BME280;17930;48.592;8.868;2023-05-01T00:03:53;96683.25;;;10.42;100.00
6829;BME280;17930;48.592;8.868;2023-05-01T00:06:20;96679.09;;;10.41;100.00
6829;BME280;17930;48.592;8.868;2023-05-01T00:08:46;96675.16;;;10.43;100.00
6829;BME280;17930;48.592;8.868;2023-05-01T00:11:13;96676.25;;;10.37;100.00
6829;BME280;17930;48.592;8.868;2023-05-01T00:13:40;96672.88;;;10.37;100.00
6829;BME280;17930;48.592;8.868;2023-05-01T00:16:07;96669.25;;;10.33;100.00
6829;BME280;17930;48.592;8.868;2023-05-01T00:18:36;96665.06;;;10.32;100.00
6829;BME280;17930;48.592;8.868;2023-05-01T00:21:03;96663.69;;;10.44;100.00
6829;BME280;17930;48.592;8.868;2023-05-01T00:23:29;96664.25;;;10.41;100.00
6829;BME280;17930;48.592;8.868;2023-05-01T00:25:56;96660.34;;;10.39;100.00
6829;BME280;17930;48.592;8.868;2023-05-01T00:28:23;96657.81;;;10.62;100.00
6829;BME280;17930;48.592;8.868;2023-05-01T00:30:49;96660.47;;;10.52;100.00
6829;BME280;17930;48.592;8.868;2023-05-01T00:33:16;96660.47;;;10.52;100.00
6829;BME280;17930;48.592;8.868;2023-05-01T00:35:44;96655.78;;;10.54;100.00
6829;BME280;17930;48.592;8.868;2023-05-01T00:38:11;96646.94;;;10.50;100.00
6829;BME280;17930;48.592;8.868;2023-05-01T00:40:41;96649.38;;;10.42;100.00
6829;BME280;17930;48.592;8.868;2023-05-01T00:43:09;96644.47;;;10.35;100.00
6829;BME280;17930;48.592;8.868;2023-05-01T00:45:36;96636.69;;;10.30;100.00
6829;BME280;17930;48.592;8.868;2023-05-01T00:48:03;96646.34;;;10.30;100.00
6829;BME280;17930;48.592;8.868;2023-05-01T00:50:30;96634.13;;;10.25;100.00
6829;BME280;17930;48.592;8.868;2023-05-01T00:52:59;96638.31;;;10.22;100.00
6829;BME280;17930;48.592;8.868;2023-05-01T00:55:25;96635.66;;;10.26;100.00
6829;BME280;17930;48.592;8.868;2023-05-01T00:57:52;96639.09;;;10.22;100.00
6829;BME280;17930;48.592;8.868;2023-05-01T01:00:20;96630.44;;;10.26;100.00
6829;BME280;17930;48.592;8.868;2023-05-01T01:02:49;96630.91;;;10.33;100.00
6829;BME280;17930;48.592;8.868;2023-05-01T01:05:15;96631.53;;;10.21;100.00
6829;BME280;17930;48.592;8.868;2023-05-01T01:07:48;96626.88;;;10.18;100.00
6829;BME280;17930;48.592;8.868;2023-05-01T01:10:26;96619.63;;;10.10;100.00
6829;BME280;17930;48.592;8.868;2023-05-01T01:13:03;96612.25;;;10.22;100.00
6829;BME280;17930;48.592;8.868;2023-05-01T01:15:37;96619.06;;;10.13;100.00
6829;BME280;17930;48.592;8.868;2023-05-01T01:18:08;96605.06;;;10.04;100.00
6829;BME280;17930;48.592;8.868;2023-05-01T01:20:40;96610.28;;;10.04;100.00
6829;BME280;17930;48.592;8.868;2023-05-01T01:23:32;96604.53;;;10.07;100.00
6829;BME280;17930;48.592;8.868;2023-05-01T01:26:12;96597.72;;;10.16;100.00
6829;BME280;17930;48.592;8.868;2023-05-01T01:32:02;96595.53;;;10.27;100.00
6829;BME280;17930;48.592;8.868;2023-05-01T01:34:33;96596.63;;;10.17;100.00
6829;BME280;17930;48.592;8.868;2023-05-01T01:37:03;96597.44;;;10.17;100.00
6829;BME280;17930;48.592;8.868;2023-05-01T01:39:42;96600.31;;;10.16;100.00
6829;BME280;17930;48.592;8.868;2023-05-01T01:42:15;96598.56;;;10.06;100.00
6829;BME280;17930;48.592;8.868;2023-05-01T01:44:48;96606.16;;;9.98;100.00
6829;BME280;17930;48.592;8.868;2023-05-01T01:47:17;96605.13;;;9.94;100.00
6829;BME280;17930;48.592;8.868;2023-05-01T01:49:48;96596.50;;;9.98;100.00
6829;BME280;17930;48.592;8.868;2023-05-01T01:52:17;96599.38;;;9.97;100.00
6829;BME280;17930;48.592;8.868;2023-05-01T01:54:49;96594.59;;;10.14;100.00
6829;BME280;17930;48.592;8.868;2023-05-01T01:57:18;96593.00;;;10.18;100.00
6829;BME280;17930;48.592;8.868;2023-05-01T01:59:47;96588.53;;;10.18;100.00
6829;BME280;17930;48.592;8.868;2023-05-01T02:02:17;96598.22;;;10.13;100.00
6829;BME280;17930;48.592;8.868;2023-05-01T02:04:47;96590.22;;;10.04;100.00
6829;BME280;17930;48.592;8.868;2023-05-01T02:07:15;96588.41;;;10.05;100.00
6829;BME280;17930;48.592;8.868;2023-05-01T02:09:43;96586.56;;;10.05;100.00
6829;BME280;17930;48.592;8.868;2023-05-01T02:12:11;96584.00;;;10.00;100.00
6829;BME280;17930;48.592;8.868;2023-05-01T02:14:41;96579.03;;;10.04;100.00
6829;BME280;17930;48.592;8.868;2023-05-01T02:17:08;96580.03;;;10.08;100.00
6829;BME280;17930;48.592;8.868;2023-05-01T02:19:37;96573.19;;;10.17;100.00
6829;BME280;17930;48.592;8.868;2023-05-01T02:22:06;96579.28;;;10.07;100.00
6829;BME280;17930;48.592;8.868;2023-05-01T02:24:34;96571.22;;;10.04;100.00
6829;BME280;17930;48.592;8.868;2023-05-01T02:27:06;96572.53;;;10.01;100.00
6829;BME280;17930;48.592;8.868;2023-05-01T02:29:34;96572.78;;;10.00;100.00
6829;BME280;17930;48.592;8.868;2023-05-01T02:32:00;96569.13;;;10.06;100.00
6829;BME280;17930;48.592;8.868;2023-05-01T02:34:27;96572.25;;;10.03;100.00
6829;BME280;17930;48.592;8.868;2023-05-01T02:36:54;96567.09;;;9.98;100.00
6829;BME280;17930;48.592;8.868;2023-05-01T02:39:22;96562.91;;;10.02;100.00
6829;BME280;17930;48.592;8.868;2023-05-01T02:41:49;96562.38;;;10.00;100.00
6829;BME280;17930;48.592;8.868;2023-05-01T02:44:18;96567.09;;;9.98;100.00
6829;BME280;17930;48.592;8.868;2023-05-01T02:46:46;96563.38;;;10.04;100.00
6829;BME280;17930;48.592;8.868;2023-05-01T02:49:15;96561.81;;;10.03;100.00
6829;BME280;17930;48.592;8.868;2023-05-01T02:51:44;96553.44;;;10.11;100.00
6829;BME280;17930;48.592;8.868;2023-05-01T02:54:11;96556.78;;;10.16;100.00
6829;BME280;17930;48.592;8.868;2023-05-01T02:56:39;96545.59;;;10.16;100.00
6829;BME280;17930;48.592;8.868;2023-05-01T02:59:06;96542.72;;;10.17;100.00
6829;BME280;17930;48.592;8.868;2023-05-01T03:01:33;96541.56;;;10.28;100.00
6829;BME280;17930;48.592;8.868;2023-05-01T03:03:59;96536.84;;;10.30;100.00
6829;BME280;17930;48.592;8.868;2023-05-01T03:06:26;96535.97;;;10.39;100.00
6829;BME280;17930;48.592;8.868;2023-05-01T03:08:53;96540.88;;;10.46;100.00
6829;BME280;17930;48.592;8.868;2023-05-01T03:11:20;96531.81;;;10.38;100.00
6829;BME280;17930;48.592;8.868;2023-05-01T03:13:48;96537.53;;;10.40;100.00
6829;BME280;17930;48.592;8.868;2023-05-01T03:16:14;96534.81;;;10.27;100.00
6829;BME280;17930;48.592;8.868;2023-05-01T03:18:41;96529.91;;;10.21;100.00
6829;BME280;17930;48.592;8.868;2023-05-01T03:21:08;96522.84;;;10.21;100.00
6829;BME280;17930;48.592;8.868;2023-05-01T03:23:34;96532.28;;;10.17;100.00
6829;BME280;17930;48.592;8.868;2023-05-01T03:26:02;96532.75;;;10.24;100.00
6829;BME280;17930;48.592;8.868;2023-05-01T03:28:29;96530.28;;;10.32;100.00
6829;BME280;17930;48.592;8.868;2023-05-01T03:30:57;96529.34;;;10.23;100.00
6829;BME280;17930;48.592;8.868;2023-05-01T03:33:23;96527.84;;;10.18;100.00
6829;BME280;17930;48.592;8.868;2023-05-01T03:35:58;96527.63;;;10.14;100.00
6829;BME280;17930;48.592;8.868;2023-05-01T03:38:25;96522.94;;;10.11;100.00
6829;BME280;17930;48.592;8.868;2023-05-01T03:40:52;96519.56;;;10.11;100.00
6829;BME280;17930;48.592;8.868;2023-05-01T03:43:19;96520.47;;;10.24;100.00
6829;BME280;17930;48.592;8.868;2023-05-01T03:45:46;96521.03;;;10.22;100.00
6829;BME280;17930;48.592;8.868;2023-05-01T03:48:14;96517.97;;;10.15;100.00
6829;BME280;17930;48.592;8.868;2023-05-01T03:50:40;96516.31;;;10.23;100.00
6829;BME280;17930;48.592;8.868;2023-05-01T03:53:07;96517.41;;;10.18;100.00
6829;BME280;17930;48.592;8.868;2023-05-01T03:55:34;96514.22;;;10.25;100.00
6829;BME280;17930;48.592;8.868;2023-05-01T03:58:00;96511.75;;;10.11;100.00
6829;BME280;17930;48.592;8.868;2023-05-01T04:00:27;96513.84;;;10.09;100.00
6829;BME280;17930;48.592;8.868;2023-05-01T04:02:54;96514.31;;;10.16;100.00
6829;BME280;17930;48.592;8.868;2023-05-01T04:05:22;96518.44;;;10.22;100.00
6829;BME280;17930;48.592;8.868;2023-05-01T04:07:49;96524.28;;;10.09;100.00
6829;BME280;17930;48.592;8.868;2023-05-01T04:10:15;96523.19;;;10.15;100.00
6829;BME280;17930;48.592;8.868;2023-05-01T04:12:42;96522.31;;;9.96;100.00
6829;BME280;17930;48.592;8.868;2023-05-01T04:15:09;96521.81;;;9.89;100.00
6829;BME280;17930;48.592;8.868;2023-05-01T04:17:36;96526.56;;;9.77;100.00
6829;BME280;17930;48.592;8.868;2023-05-01T04:20:03;96526.09;;;9.70;100.00
6829;BME280;17930;48.592;8.868;2023-05-01T04:22:32;96529.16;;;9.82;100.00
6829;BME280;17930;48.592;8.868;2023-05-01T04:24:58;96536.97;;;9.77;100.00
6829;BME280;17930;48.592;8.868;2023-05-01T04:27:25;96525.59;;;9.68;100.00
6829;BME280;17930;48.592;8.868;2023-05-01T04:29:52;96525.31;;;9.69;100.00
6829;BME280;17930;48.592;8.868;2023-05-01T04:32:18;96527.44;;;9.68;100.00
6829;BME280;17930;48.592;8.868;2023-05-01T04:34:45;96525.59;;;9.68;100.00
6829;BME280;17930;48.592;8.868;2023-05-01T04:37:12;96529.84;;;9.92;100.00
6829;BME280;17930;48.592;8.868;2023-05-01T04:39:43;96531.16;;;9.90;100.00
6829;BME280;17930;48.592;8.868;2023-05-01T04:42:10;96530.13;;;9.96;100.00
6829;BME280;17930;48.592;8.868;2023-05-01T04:44:36;96522.03;;;9.97;100.00
6829;BME280;17930;48.592;8.868;2023-05-01T04:47:03;96528.56;;;9.90;100.00
6829;BME280;17930;48.592;8.868;2023-05-01T04:49:30;96531.22;;;9.80;100.00
6829;BME280;17930;48.592;8.868;2023-05-01T04:51:57;96530.69;;;9.83;100.00
6829;BME280;17930;48.592;8.868;2023-05-01T04:54:23;96533.22;;;9.98;100.00
6829;BME280;17930;48.592;8.868;2023-05-01T04:56:52;96521.75;;;9.99;100.00
6829;BME280;17930;48.592;8.868;2023-05-01T04:59:18;96528.81;;;9.93;100.00
6829;BME280;17930;48.592;8.868;2023-05-01T05:01:45;96521.56;;;9.85;100.00
6829;BME280;17930;48.592;8.868;2023-05-01T05:04:12;96525.94;;;9.90;100.00
6829;BME280;17930;48.592;8.868;2023-05-01T05:06:38;96522.78;;;9.93;100.00
6829;BME280;17930;48.592;8.868;2023-05-01T05:09:05;96526.19;;;9.93;100.00
6829;BME280;17930;48.592;8.868;2023-05-01T05:11:31;96538.97;;;9.90;100.00
6829;BME280;17930;48.592;8.868;2023-05-01T05:13:59;96535.88;;;9.88;100.00
6829;BME280;17930;48.592;8.868;2023-05-01T05:16:26;96541.34;;;9.86;100.00
6829;BME280;17930;48.592;8.868;2023-05-01T05:18:54;96530.38;;;9.89;100.00
6829;BME280;17930;48.592;8.868;2023-05-01T05:21:20;96535.81;;;9.93;100.00
6829;BME280;17930;48.592;8.868;2023-05-01T05:23:47;96535.28;;;10.01;100.00
6829;BME280;17930;48.592;8.868;2023-05-01T05:26:14;96534.16;;;10.12;100.00
6829;BME280;17930;48.592;8.868;2023-05-01T05:28:40;96539.28;;;10.22;100.00
6829;BME280;17930;48.592;8.868;2023-05-01T05:31:08;96530.91;;;10.24;100.00
6829;BME280;17930;48.592;8.868;2023-05-01T05:33:35;96544.25;;;10.18;100.00
6829;BME280;17930;48.592;8.868;2023-05-01T05:36:02;96537.81;;;10.11;100.00
6829;BME280;17930;48.592;8.868;2023-05-01T05:38:29;96534.44;;;10.10;100.00
6829;BME280;17930;48.592;8.868;2023-05-01T05:40:55;96544.84;;;10.10;100.00
6829;BME280;17930;48.592;8.868;2023-05-01T05:43:23;96544.59;;;10.07;100.00
6829;BME280;17930;48.592;8.868;2023-05-01T05:45:50;96543.47;;;10.18;100.00
6829;BME280;17930;48.592;8.868;2023-05-01T05:48:18;96537.06;;;10.33;100.00
6829;BME280;17930;48.592;8.868;2023-05-01T05:50:45;96537.34;;;10.60;100.00
6829;BME280;17930;48.592;8.868;2023-05-01T05:53:11;96533.81;;;10.46;100.00
6829;BME280;17930;48.592;8.868;2023-05-01T05:55:38;96533.69;;;10.61;100.00
6829;BME280;17930;48.592;8.868;2023-05-01T05:58:05;96541.44;;;10.66;100.00
6829;BME280;17930;48.592;8.868;2023-05-01T06:00:31;96535.44;;;10.89;100.00
6829;BME280;17930;48.592;8.868;2023-05-01T06:02:58;96534.69;;;10.88;100.00
6829;BME280;17930;48.592;8.868;2023-05-01T06:05:26;96539.56;;;10.95;100.00
6829;BME280;17930;48.592;8.868;2023-05-01T06:07:53;96540.00;;;10.78;100.00
6829;BME280;17930;48.592;8.868;2023-05-01T06:10:20;96545.69;;;10.62;100.00
6829;BME280;17930;48.592;8.868;2023-05-01T06:12:47;96537.25;;;10.42;100.00
6829;BME280;17930;48.592;8.868;2023-05-01T06:15:15;96531.56;;;10.40;100.00
6829;BME280;17930;48.592;8.868;2023-05-01T06:17:41;96540.91;;;10.41;100.00
6829;BME280;17930;48.592;8.868;2023-05-01T06:20:09;96540.41;;;10.39;100.00
6829;BME280;17930;48.592;8.868;2023-05-01T06:22:37;96545.25;;;10.50;100.00
6829;BME280;17930;48.592;8.868;2023-05-01T06:25:05;96537.13;;;10.57;100.00
6829;BME280;17930;48.592;8.868;2023-05-01T06:27:32;96535.03;;;10.82;100.00
6829;BME280;17930;48.592;8.868;2023-05-01T06:29:58;96535.88;;;10.96;100.00
6829;BME280;17930;48.592;8.868;2023-05-01T06:32:25;96539.09;;;11.11;100.00
6829;BME280;17930;48.592;8.868;2023-05-01T06:34:52;96539.00;;;11.39;100.00
6829;BME280;17930;48.592;8.868;2023-05-01T06:37:18;96537.59;;;11.47;100.00
6829;BME280;17930;48.592;8.868;2023-05-01T06:39:46;96540.81;;;11.62;100.00
6829;BME280;17930;48.592;8.868;2023-05-01T06:42:13;96537.00;;;11.73;100.00
6829;BME280;17930;48.592;8.868;2023-05-01T06:44:41;96538.03;;;11.90;100.00
6829;BME280;17930;48.592;8.868;2023-05-01T06:47:08;96540.94;;;11.89;100.00
6829;BME280;17930;48.592;8.868;2023-05-01T06:49:34;96543.81;;;11.87;100.00
6829;BME280;17930;48.592;8.868;2023-05-01T06:52:01;96546.31;;;11.79;100.00
6829;BME280;17930;48.592;8.868;2023-05-01T06:54:28;96544.91;;;11.68;100.00
6829;BME280;17930;48.592;8.868;2023-05-01T06:56:56;96546.59;;;11.59;100.00
6829;BME280;17930;48.592;8.868;2023-05-01T06:59:22;96552.38;;;11.56;100.00
6829;BME280;17930;48.592;8.868;2023-05-01T07:01:49;96547.16;;;11.56;100.00
6829;BME280;17930;48.592;8.868;2023-05-01T07:04:16;96550.38;;;11.85;100.00
6829;BME280;17930;48.592;8.868;2023-05-01T07:06:43;96547.72;;;11.90;100.00
6829;BME280;17930;48.592;8.868;2023-05-01T07:09:11;96544.84;;;12.05;100.00
6829;BME280;17930;48.592;8.868;2023-05-01T07:11:38;96545.63;;;12.24;100.00
6829;BME280;17930;48.592;8.868;2023-05-01T07:14:06;96549.03;;;12.37;100.00
6829;BME280;17930;48.592;8.868;2023-05-01T07:16:33;96541.44;;;12.54;100.00
6829;BME280;17930;48.592;8.868;2023-05-01T07:18:59;96545.56;;;12.55;100.00
6829;BME280;17930;48.592;8.868;2023-05-01T07:21:26;96542.97;;;12.55;100.00
6829;BME280;17930;48.592;8.868;2023-05-01T07:23:53;96539.75;;;12.58;100.00
6829;BME280;17930;48.592;8.868;2023-05-01T07:26:20;96531.84;;;12.63;100.00
6829;BME280;17930;48.592;8.868;2023-05-01T07:28:46;96541.16;;;12.69;100.00
6829;BME280;17930;48.592;8.868;2023-05-01T07:31:14;96535.78;;;12.92;100.00
6829;BME280;17930;48.592;8.868;2023-05-01T07:33:41;96538.66;;;12.91;100.00
6829;BME280;17930;48.592;8.868;2023-05-01T07:36:07;96534.38;;;13.22;100.00
6829;BME280;17930;48.592;8.868;2023-05-01T07:38:34;96530.06;;;13.52;100.00
6829;BME280;17930;48.592;8.868;2023-05-01T07:41:01;96530.34;;;13.86;100.00
6829;BME280;17930;48.592;8.868;2023-05-01T07:43:27;96532.91;;;14.13;100.00
6829;BME280;17930;48.592;8.868;2023-05-01T07:45:55;96533.31;;;14.58;100.00
6829;BME280;17930;48.592;8.868;2023-05-01T07:48:23;96525.28;;;14.93;100.00
6829;BME280;17930;48.592;8.868;2023-05-01T07:50:50;96533.16;;;15.32;100.00
6829;BME280;17930;48.592;8.868;2023-05-01T07:53:17;96528.34;;;15.26;100.00
6829;BME280;17930;48.592;8.868;2023-05-01T07:55:43;96529.13;;;15.26;100.00
6829;BME280;17930;48.592;8.868;2023-05-01T07:58:10;96532.47;;;15.99;100.00
6829;BME280;17930;48.592;8.868;2023-05-01T08:00:37;96529.81;;;15.99;100.00
6829;BME280;17930;48.592;8.868;2023-05-01T08:03:03;96533.69;;;15.93;100.00
6829;BME280;17930;48.592;8.868;2023-05-01T08:05:31;96533.34;;;15.86;100.00
6829;BME280;17930;48.592;8.868;2023-05-01T08:07:58;96534.28;;;15.73;100.00
6829;BME280;17930;48.592;8.868;2023-05-01T08:10:24;96536.16;;;15.98;100.00
6829;BME280;17930;48.592;8.868;2023-05-01T08:12:53;96534.56;;;16.47;100.00
6829;BME280;17930;48.592;8.868;2023-05-01T08:15:19;96531.06;;;16.81;100.00
6829;BME280;17930;48.592;8.868;2023-05-01T08:17:46;96530.19;;;16.68;100.00
6829;BME280;17930;48.592;8.868;2023-05-01T08:20:13;96526.94;;;17.37;100.00
6829;BME280;17930;48.592;8.868;2023-05-01T08:22:41;96526.09;;;18.14;100.00
6829;BME280;17930;48.592;8.868;2023-05-01T08:25:07;96532.53;;;18.25;100.00
6829;BME280;17930;48.592;8.868;2023-05-01T08:27:34;96529.41;;;18.03;100.00
6829;BME280;17930;48.592;8.868;2023-05-01T08:30:01;96531.91;;;18.40;100.00
6829;BME280;17930;48.592;8.868;2023-05-01T08:32:28;96528.13;;;18.09;100.00
6829;BME280;17930;48.592;8.868;2023-05-01T08:34:55;96528.91;;;17.89;100.00
6829;BME280;17930;48.592;8.868;2023-05-01T08:37:21;96528.84;;;17.77;100.00
6829;BME280;17930;48.592;8.868;2023-05-01T08:39:49;96521.59;;;17.74;100.00
6829;BME280;17930;48.592;8.868;2023-05-01T08:42:16;96523.00;;;17.72;100.00
6829;BME280;17930;48.592;8.868;2023-05-01T08:44:45;96526.72;;;17.50;100.00
6829;BME280;17930;48.592;8.868;2023-05-01T08:47:15;96525.16;;;17.49;100.00
6829;BME280;17930;48.592;8.868;2023-05-01T08:49:43;96532.22;;;17.37;100.00
6829;BME280;17930;48.592;8.868;2023-05-01T08:52:12;96528.56;;;17.21;100.00
6829;BME280;17930;48.592;8.868;2023-05-01T08:54:41;96522.63;;;17.61;100.00
6829;BME280;17930;48.592;8.868;2023-05-01T08:57:10;96522.22;;;17.92;100.00
6829;BME280;17930;48.592;8.868;2023-05-01T08:59:38;96525.81;;;18.07;100.00
6829;BME280;17930;48.592;8.868;2023-05-01T09:02:06;96527.88;;;17.82;100.00
6829;BME280;17930;48.592;8.868;2023-05-01T09:04:35;96524.94;;;17.83;100.00
6829;BME280;17930;48.592;8.868;2023-05-01T09:07:02;96529.50;;;17.74;100.00
6829;BME280;17930;48.592;8.868;2023-05-01T09:09:30;96519.78;;;17.66;100.00
6829;BME280;17930;48.592;8.868;2023-05-01T09:12:00;96518.09;;;17.42;100.00
6829;BME280;17930;48.592;8.868;2023-05-01T09:14:31;96526.53;;;17.27;100.00
6829;BME280;17930;48.592;8.868;2023-05-01T09:16:58;96518.97;;;17.25;100.00
6829;BME280;17930;48.592;8.868;2023-05-01T09:19:25;96517.50;;;17.56;100.00
6829;BME280;17930;48.592;8.868;2023-05-01T09:21:52;96519.75;;;17.87;100.00
6829;BME280;17930;48.592;8.868;2023-05-01T09:24:21;96523.22;;;18.40;100.00
6829;BME280;17930;48.592;8.868;2023-05-01T09:26:49;96514.94;;;18.85;100.00
6829;BME280;17930;48.592;8.868;2023-05-01T09:29:37;96512.72;;;19.58;100.00
6829;BME280;17930;48.592;8.868;2023-05-01T09:32:15;96519.16;;;19.22;100.00
6829;BME280;17930;48.592;8.868;2023-05-01T09:34:43;96522.09;;;19.68;100.00
6829;BME280;17930;48.592;8.868;2023-05-01T09:37:12;96515.97;;;19.91;100.00
6829;BME280;17930;48.592;8.868;2023-05-01T09:40:02;96513.00;;;19.93;100.00
6829;BME280;17930;48.592;8.868;2023-05-01T09:42:30;96518.97;;;19.90;100.00
6829;BME280;17930;48.592;8.868;2023-05-01T09:44:58;96519.09;;;19.69;100.00
6829;BME280;17930;48.592;8.868;2023-05-01T09:47:25;96523.13;;;19.40;100.00
6829;BME280;17930;48.592;8.868;2023-05-01T09:49:54;96512.13;;;19.14;100.00
6829;BME280;17930;48.592;8.868;2023-05-01T09:52:22;96522.47;;;18.51;100.00
6829;BME280;17930;48.592;8.868;2023-05-01T09:54:48;96519.09;;;18.30;100.00
6829;BME280;17930;48.592;8.868;2023-05-01T09:57:15;96515.81;;;18.33;100.00
6829;BME280;17930;48.592;8.868;2023-05-01T09:59:41;96518.34;;;18.42;100.00
6829;BME280;17930;48.592;8.868;2023-05-01T10:02:26;96521.94;;;18.57;100.00
6829;BME280;17930;48.592;8.868;2023-05-01T10:04:57;96521.94;;;18.05;100.00
6829;BME280;17930;48.592;8.868;2023-05-01T10:07:23;96518.31;;;18.18;100.00
6829;BME280;17930;48.592;8.868;2023-05-01T10:09:50;96519.28;;;18.05;100.00
6829;BME280;17930;48.592;8.868;2023-05-01T10:12:22;96518.75;;;17.99;100.00
6829;BME280;17930;48.592;8.868;2023-05-01T10:14:50;96516.94;;;17.92;100.00
6829;BME280;17930;48.592;8.868;2023-05-01T10:17:19;96526.19;;;17.57;100.00
6829;BME280;17930;48.592;8.868;2023-05-01T10:19:46;96523.22;;;17.58;100.00
6829;BME280;17930;48.592;8.868;2023-05-01T10:22:13;96523.28;;;17.50;100.00
6829;BME280;17930;48.592;8.868;2023-05-01T10:24:41;96529.09;;;17.44;100.00
6829;BME280;17930;48.592;8.868;2023-05-01T10:27:08;96525.00;;;17.54;100.00
6829;BME280;17930;48.592;8.868;2023-05-01T10:29:39;96526.66;;;17.30;100.00
6829;BME280;17930;48.592;8.868;2023-05-01T10:32:07;96528.38;;;17.35;100.00
6829;BME280;17930;48.592;8.868;2023-05-01T10:34:38;96540.94;;;16.92;100.00
6829;BME280;17930;48.592;8.868;2023-05-01T10:37:10;96530.53;;;16.58;100.00
6829;BME280;17930;48.592;8.868;2023-05-01T10:39:38;96535.03;;;16.49;100.00
6829;BME280;17930;48.592;8.868;2023-05-01T10:42:06;96528.25;;;16.15;100.00
6829;BME280;17930;48.592;8.868;2023-05-01T10:44:36;96530.53;;;15.40;100.00
6829;BME280;17930;48.592;8.868;2023-05-01T10:50:10;96532.03;;;14.47;100.00
6829;BME280;17930;48.592;8.868;2023-05-01T10:55:41;96539.44;;;14.45;100.00
6829;BME280;17930;48.592;8.868;2023-05-01T10:58:09;96530.44;;;14.38;100.00
6829;BME280;17930;48.592;8.868;2023-05-01T11:00:36;96531.50;;;14.67;100.00
6829;BME280;17930;48.592;8.868;2023-05-01T11:03:34;96529.63;;;14.98;100.00
6829;BME280;17930;48.592;8.868;2023-05-01T11:06:06;96525.16;;;15.54;100.00
6829;BME280;17930;48.592;8.868;2023-05-01T11:08:34;96522.56;;;15.79;100.00
6829;BME280;17930;48.592;8.868;2023-05-01T11:14:06;96519.88;;;16.84;100.00
6829;BME280;17930;48.592;8.868;2023-05-01T11:16:42;96520.16;;;17.56;100.00
6829;BME280;17930;48.592;8.868;2023-05-01T11:19:43;96512.63;;;18.40;100.00
6829;BME280;17930;48.592;8.868;2023-05-01T11:22:12;96503.91;;;19.54;100.00
6829;BME280;17930;48.592;8.868;2023-05-01T11:24:39;96499.09;;;20.65;100.00
6829;BME280;17930;48.592;8.868;2023-05-01T11:27:07;96500.75;;;22.03;100.00
6829;BME280;17930;48.592;8.868;2023-05-01T11:29:34;96498.00;;;22.56;100.00
6829;BME280;17930;48.592;8.868;2023-05-01T11:32:02;96495.41;;;22.82;100.00
6829;BME280;17930;48.592;8.868;2023-05-01T11:34:34;96485.13;;;23.25;100.00
6829;BME280;17930;48.592;8.868;2023-05-01T11:37:01;96490.34;;;23.18;100.00
6829;BME280;17930;48.592;8.868;2023-05-01T11:39:30;96485.53;;;23.27;100.00
6829;BME280;17930;48.592;8.868;2023-05-01T11:42:06;96479.94;;;24.56;100.00
6829;BME280;17930;48.592;8.868;2023-05-01T11:44:33;96484.00;;;23.77;98.48
6829;BME280;17930;48.592;8.868;2023-05-01T11:46:59;96494.22;;;21.29;100.00
6829;BME280;17930;48.592;8.868;2023-05-01T11:49:26;96484.66;;;21.59;100.00
6829;BME280;17930;48.592;8.868;2023-05-01T11:51:57;96477.84;;;21.95;100.00
6829;BME280;17930;48.592;8.868;2023-05-01T11:54:25;96484.84;;;21.50;100.00
6829;BME280;17930;48.592;8.868;2023-05-01T11:56:58;96469.22;;;21.83;100.00
6829;BME280;17930;48.592;8.868;2023-05-01T11:59:25;96474.75;;;21.56;100.00
6829;BME280;17930;48.592;8.868;2023-05-01T12:01:52;96477.72;;;20.89;100.00
6829;BME280;17930;48.592;8.868;2023-05-01T12:04:24;96479.34;;;20.94;100.00
6829;BME280;17930;48.592;8.868;2023-05-01T12:06:51;96473.25;;;20.62;100.00
6829;BME280;17930;48.592;8.868;2023-05-01T12:09:19;96475.16;;;19.92;100.00
6829;BME280;17930;48.592;8.868;2023-05-01T12:11:46;96472.13;;;20.48;100.00
6829;BME280;17930;48.592;8.868;2023-05-01T12:14:15;96468.97;;;21.04;100.00
6829;BME280;17930;48.592;8.868;2023-05-01T12:16:43;96457.69;;;21.75;100.00
6829;BME280;17930;48.592;8.868;2023-05-01T12:19:12;96464.03;;;22.27;100.00
6829;BME280;17930;48.592;8.868;2023-05-01T12:21:39;96458.47;;;22.55;100.00
6829;BME280;17930;48.592;8.868;2023-05-01T12:24:07;96451.16;;;22.70;100.00
6829;BME280;17930;48.592;8.868;2023-05-01T12:26:33;96448.09;;;22.94;100.00
6829;BME280;17930;48.592;8.868;2023-05-01T12:29:01;96454.63;;;22.74;100.00
6829;BME280;17930;48.592;8.868;2023-05-01T12:31:30;96450.72;;;22.46;100.00
6829;BME280;17930;48.592;8.868;2023-05-01T12:33:57;96453.22;;;21.79;100.00
6829;BME280;17930;48.592;8.868;2023-05-01T12:36:28;96462.78;;;21.31;100.00
6829;BME280;17930;48.592;8.868;2023-05-01T12:39:00;96470.94;;;20.61;100.00
6829;BME280;17930;48.592;8.868;2023-05-01T12:41:38;96476.56;;;19.62;100.00
6829;BME280;17930;48.592;8.868;2023-05-01T12:44:16;96482.50;;;18.52;100.00
6829;BME280;17930;48.592;8.868;2023-05-01T12:46:53;96479.44;;;17.17;100.00
6829;BME280;17930;48.592;8.868;2023-05-01T12:49:21;96481.91;;;16.47;100.00
6829;BME280;17930;48.592;8.868;2023-05-01T12:51:49;96482.78;;;15.81;100.00
6829;BME280;17930;48.592;8.868;2023-05-01T12:54:20;96482.94;;;15.67;100.00
6829;BME280;17930;48.592;8.868;2023-05-01T12:56:46;96484.91;;;15.28;100.00
6829;BME280;17930;48.592;8.868;2023-05-01T12:59:19;96479.50;;;14.78;100.00
6829;BME280;17930;48.592;8.868;2023-05-01T13:01:47;96486.00;;;14.41;100.00
6829;BME280;17930;48.592;8.868;2023-05-01T13:04:19;96488.00;;;14.44;100.00
6829;BME280;17930;48.592;8.868;2023-05-01T13:06:46;96480.59;;;14.38;100.00
6829;BME280;17930;48.592;8.868;2023-05-01T13:09:13;96479.19;;;14.40;100.00
6829;BME280;17930;48.592;8.868;2023-05-01T13:11:41;96478.16;;;14.50;100.00
6829;BME280;17930;48.592;8.868;2023-05-01T13:14:09;96469.22;;;14.98;100.00
6829;BME280;17930;48.592;8.868;2023-05-01T13:16:43;96464.06;;;15.48;100.00
6829;BME280;17930;48.592;8.868;2023-05-01T13:19:12;96468.53;;;15.82;100.00
6829;BME280;17930;48.592;8.868;2023-05-01T13:21:45;96467.25;;;16.04;100.00